This is the latest recevied weather packets stored in our database for station/object EA1PVC-10. If no packets are shown the sender has not sent any weather packets the latest 10 day(s).
| Time | Temp. | Humidity | Pressure | Rain* | Wind** | Luminosity | Snow |
|---|---|---|---|---|---|---|---|
| 1777556358 | 22.22° C | 39% | 923.7 hPa | - | - | - | - |
| 1777555458 | 23.89° C | 39% | 923.8 hPa | - | - | - | - |
| 1777554558 | 20° C | 43% | 923.8 hPa | - | - | - | - |
| 1777553658 | 19.44° C | 45% | 923.7 hPa | - | - | - | - |
| 1777552758 | 20° C | 43% | 923.7 hPa | - | - | - | - |
| 1777551858 | 20.56° C | 43% | 923.7 hPa | - | - | - | - |
| 1777550958 | 19.44° C | 46% | 923.7 hPa | - | - | - | - |
| 1777550058 | 8.89° C | 49% | 908.3 hPa | - | - | - | - |
| 1777549158 | 16.67° C | 55% | 923.9 hPa | - | - | - | - |
| 1777548258 | 11.67° C | 53% | 917.2 hPa | - | - | - | - |
| 1777547346 | 17.78° C | 51% | 923.8 hPa | - | - | - | - |
| 1777546446 | 16.67° C | 55% | 923.7 hPa | - | - | - | - |
| 1777545546 | 16.11° C | 56% | 923.7 hPa | - | - | - | - |
| 1777543746 | 15.56° C | 62% | 923.7 hPa | - | - | - | - |
| 1777542846 | 15.56° C | 65% | 923.7 hPa | - | - | - | - |
| 1777541946 | 14.44° C | 71% | 923.6 hPa | - | - | - | - |
| 1777541046 | 13.89° C | 73% | 923.5 hPa | - | - | - | - |
| 1777540146 | 13.33° C | 76% | 923.5 hPa | - | - | - | - |
| 1777539246 | 12.78° C | 79% | 923.4 hPa | - | - | - | - |
| 1777538346 | 13.33° C | 82% | 923.4 hPa | - | - | - | - |
| 1777537446 | 7.22° C | 85% | 916.5 hPa | - | - | - | - |
| 1777536534 | 11.67° C | 86% | 923.2 hPa | - | - | - | - |
| 1777535634 | 11.67° C | 89% | 922.9 hPa | - | - | - | - |
| 1777534734 | 11.67° C | 90% | 922.9 hPa | - | - | - | - |
| 1777533834 | 11.11° C | 90% | 922.7 hPa | - | - | - | - |
* Rain since midnight (hover to see other rain measurements)
** Current wind speed in m/s (hover to see current wind gust speed)